createdAt,value
2018-09-27T00:00:31.303Z,51.30
2018-09-27T00:03:04.893Z,50.97
2018-09-27T00:05:38.507Z,51.42
2018-09-27T00:08:12.210Z,51.29
2018-09-27T00:10:45.742Z,51.34
2018-09-27T00:13:19.300Z,51.27
2018-09-27T00:15:52.927Z,51.87
2018-09-27T00:18:26.498Z,51.39
2018-09-27T00:21:00.048Z,51.53
2018-09-27T00:23:33.645Z,51.83
2018-09-27T00:26:08.111Z,51.74
2018-09-27T00:28:41.683Z,51.89
2018-09-27T00:31:15.343Z,51.87
2018-09-27T00:33:48.919Z,51.68
2018-09-27T00:36:22.496Z,52.12
2018-09-27T00:38:56.070Z,52.02
2018-09-27T00:41:29.729Z,52.16
2018-09-27T00:44:03.369Z,52.29
2018-09-27T00:46:36.991Z,52.21
2018-09-27T00:49:10.571Z,52.22
2018-09-27T00:51:44.146Z,52.33
2018-09-27T00:54:17.733Z,51.55
2018-09-27T00:56:51.259Z,51.90
2018-09-27T00:59:24.816Z,51.61
2018-09-27T01:01:58.573Z,51.81
2018-09-27T01:04:32.171Z,51.69
2018-09-27T01:07:05.777Z,51.77
2018-09-27T01:09:39.345Z,52.05
2018-09-27T01:12:12.997Z,52.21
2018-09-27T01:14:46.756Z,51.53
2018-09-27T01:17:20.416Z,52.05
2018-09-27T01:19:54.002Z,52.08
2018-09-27T01:22:27.722Z,51.63
2018-09-27T01:25:01.344Z,51.87
2018-09-27T01:27:34.922Z,51.55
2018-09-27T01:30:09.032Z,51.44
2018-09-27T01:32:42.629Z,51.99
2018-09-27T01:35:16.194Z,51.76
2018-09-27T01:37:49.776Z,51.86
2018-09-27T01:40:23.398Z,51.98
2018-09-27T01:42:57.017Z,51.78
2018-09-27T01:45:30.600Z,51.59
2018-09-27T01:48:04.178Z,51.46
2018-09-27T01:50:38.111Z,51.93
2018-09-27T01:53:11.693Z,51.41
2018-09-27T01:55:45.269Z,51.30
2018-09-27T01:58:18.891Z,51.74
2018-09-27T02:00:52.512Z,51.91
2018-09-27T02:03:26.077Z,51.53
2018-09-27T02:05:59.662Z,51.78
2018-09-27T02:08:33.225Z,52.12
2018-09-27T02:11:06.928Z,51.82
2018-09-27T02:13:40.547Z,51.02
2018-09-27T02:16:14.105Z,51.44
2018-09-27T02:18:47.684Z,51.24
2018-09-27T02:21:21.319Z,51.33
2018-09-27T02:23:54.970Z,51.71
2018-09-27T02:26:28.550Z,51.13
2018-09-27T02:29:02.171Z,51.53
2018-09-27T02:31:35.786Z,51.37
2018-09-27T02:34:09.488Z,51.63
2018-09-27T02:36:43.084Z,51.61
2018-09-27T02:39:16.784Z,50.97
2018-09-27T02:41:50.440Z,51.53
2018-09-27T02:44:24.089Z,51.69
2018-09-27T02:46:57.694Z,51.80
2018-09-27T02:49:31.311Z,51.48
2018-09-27T02:52:04.926Z,51.48
2018-09-27T02:54:38.618Z,51.92
2018-09-27T02:57:12.243Z,51.87
2018-09-27T02:59:45.973Z,51.76
2018-09-27T03:02:19.802Z,52.26
2018-09-27T03:04:53.456Z,52.15
2018-09-27T03:07:27.037Z,52.57
2018-09-27T03:10:00.703Z,51.74
2018-09-27T03:12:34.539Z,52.08
2018-09-27T03:15:08.187Z,51.76
2018-09-27T03:17:41.790Z,52.15
2018-09-27T03:20:15.411Z,52.41
2018-09-27T03:22:49.101Z,51.58
2018-09-27T03:25:22.749Z,51.72
2018-09-27T03:27:56.475Z,52.01
2018-09-27T03:30:30.106Z,52.33
2018-09-27T03:33:03.760Z,52.34
2018-09-27T03:35:37.376Z,51.75
2018-09-27T03:38:11.032Z,51.93
2018-09-27T03:40:44.676Z,52.20
2018-09-27T03:43:18.299Z,52.55
2018-09-27T03:45:51.918Z,52.49
2018-09-27T03:48:25.518Z,52.67
2018-09-27T03:50:59.121Z,52.02
2018-09-27T03:53:32.709Z,52.70
2018-09-27T03:56:06.321Z,52.99
2018-09-27T03:58:39.917Z,52.60
2018-09-27T04:01:13.549Z,52.49
2018-09-27T04:03:47.196Z,52.77
2018-09-27T04:06:20.816Z,52.77
2018-09-27T04:08:54.454Z,53.26
2018-09-27T04:11:28.107Z,53.22
2018-09-27T04:14:01.720Z,53.00
2018-09-27T04:16:35.341Z,53.08
2018-09-27T04:19:08.944Z,53.09
2018-09-27T04:21:42.604Z,53.55
2018-09-27T04:24:16.182Z,53.39
2018-09-27T04:26:49.799Z,52.84
2018-09-27T04:29:23.463Z,52.97
2018-09-27T04:31:57.089Z,53.32
2018-09-27T04:34:30.640Z,53.47
2018-09-27T04:37:04.273Z,53.48
2018-09-27T04:39:37.902Z,53.81
2018-09-27T04:42:11.512Z,53.76
2018-09-27T04:44:45.090Z,53.50
2018-09-27T04:47:18.710Z,53.53
2018-09-27T04:49:52.282Z,53.82
2018-09-27T04:52:26.014Z,53.99
2018-09-27T04:54:59.605Z,53.62
2018-09-27T04:57:33.187Z,53.68
2018-09-27T05:00:06.945Z,53.94
2018-09-27T05:02:40.483Z,54.07
2018-09-27T05:05:14.368Z,54.09
2018-09-27T05:07:47.979Z,54.39
2018-09-27T05:10:21.605Z,54.05
2018-09-27T05:12:55.247Z,53.93
2018-09-27T05:15:28.891Z,54.14
2018-09-27T05:18:02.510Z,54.48
2018-09-27T05:20:36.302Z,54.83
2018-09-27T05:23:09.882Z,54.30
2018-09-27T05:25:43.530Z,54.32
2018-09-27T05:28:17.123Z,54.81
2018-09-27T05:30:50.757Z,54.73
2018-09-27T05:33:24.451Z,54.58
2018-09-27T05:35:58.041Z,54.67
2018-09-27T05:38:31.752Z,54.72
2018-09-27T05:41:07.026Z,54.73
2018-09-27T05:43:40.756Z,54.83
2018-09-27T05:46:14.362Z,55.06
2018-09-27T05:48:47.996Z,54.86
2018-09-27T05:51:21.630Z,54.72
2018-09-27T05:53:55.226Z,55.73
2018-09-27T05:56:28.902Z,55.59
2018-09-27T05:59:02.502Z,55.36
2018-09-27T06:01:36.213Z,55.78
2018-09-27T06:04:09.816Z,55.47
2018-09-27T06:06:43.445Z,55.72
2018-09-27T06:09:17.073Z,55.74
2018-09-27T06:11:50.691Z,55.92
2018-09-27T06:14:24.309Z,55.76
2018-09-27T06:16:57.927Z,56.05
2018-09-27T06:19:31.695Z,56.00
2018-09-27T06:22:05.227Z,55.98
2018-09-27T06:24:38.821Z,55.75
2018-09-27T06:27:12.527Z,56.07
2018-09-27T06:29:46.100Z,55.60
2018-09-27T06:32:19.863Z,55.66
2018-09-27T06:34:53.464Z,55.36
2018-09-27T06:37:27.085Z,55.41
2018-09-27T06:40:00.701Z,55.37
2018-09-27T06:42:34.424Z,55.03
2018-09-27T06:45:08.868Z,55.02
2018-09-27T06:47:42.554Z,55.30
2018-09-27T06:50:16.176Z,54.65
2018-09-27T06:52:49.816Z,54.03
2018-09-27T06:55:23.541Z,54.00
2018-09-27T06:57:57.079Z,54.36
2018-09-27T07:00:30.767Z,54.05
2018-09-27T07:03:04.578Z,54.13
2018-09-27T07:05:38.273Z,53.44
2018-09-27T07:08:11.877Z,53.84
2018-09-27T07:10:45.629Z,53.22
2018-09-27T07:13:19.265Z,52.71
2018-09-27T07:15:52.887Z,52.79
2018-09-27T07:18:26.489Z,52.92
2018-09-27T07:21:00.109Z,52.85
2018-09-27T07:23:33.853Z,53.25
2018-09-27T07:26:07.547Z,52.63
2018-09-27T07:28:41.244Z,52.23
2018-09-27T07:31:14.946Z,52.63
2018-09-27T07:33:48.587Z,51.23
2018-09-27T07:36:22.216Z,50.41
2018-09-27T07:38:55.821Z,50.74
2018-09-27T07:41:29.415Z,50.18
2018-09-27T07:44:03.057Z,50.03
2018-09-27T07:46:36.686Z,50.76
2018-09-27T07:49:10.287Z,50.46
2018-09-27T07:51:43.861Z,50.03
2018-09-27T07:54:17.514Z,49.38
2018-09-27T07:56:51.118Z,49.79
2018-09-27T07:59:24.729Z,49.29
2018-09-27T08:01:58.301Z,49.44
2018-09-27T08:04:31.923Z,49.23
2018-09-27T08:07:05.635Z,49.17
2018-09-27T08:09:39.294Z,48.67
2018-09-27T08:12:12.911Z,48.74
2018-09-27T08:14:46.513Z,48.33
2018-09-27T08:17:20.182Z,49.27
2018-09-27T08:19:53.794Z,49.05
2018-09-27T08:22:27.404Z,49.19
2018-09-27T08:25:01.001Z,48.86
2018-09-27T08:27:34.596Z,48.46
2018-09-27T08:30:08.230Z,48.56
2018-09-27T08:32:42.039Z,48.36
2018-09-27T08:35:15.595Z,47.51
2018-09-27T08:37:49.193Z,47.14
2018-09-27T08:40:22.886Z,47.61
2018-09-27T08:42:56.472Z,47.34
2018-09-27T08:45:30.262Z,48.40
2018-09-27T08:48:03.739Z,47.56
2018-09-27T08:50:37.335Z,46.63
2018-09-27T08:53:10.941Z,47.03
2018-09-27T08:55:44.680Z,47.27
2018-09-27T08:58:18.227Z,47.82
2018-09-27T09:00:51.837Z,46.32
2018-09-27T09:03:25.446Z,46.83
2018-09-27T09:05:59.120Z,47.17
2018-09-27T09:08:32.742Z,46.47
2018-09-27T09:11:06.390Z,46.02
2018-09-27T09:13:40.152Z,46.73
2018-09-27T09:16:13.767Z,46.84
2018-09-27T09:18:47.394Z,46.17
2018-09-27T09:21:20.988Z,46.11
2018-09-27T09:23:54.590Z,46.20
2018-09-27T09:26:28.183Z,45.07
2018-09-27T09:29:01.853Z,45.06
2018-09-27T09:31:35.433Z,46.16
2018-09-27T09:34:09.070Z,45.16
2018-09-27T09:36:42.672Z,44.73
2018-09-27T09:39:16.293Z,45.13
2018-09-27T09:41:49.921Z,45.38
2018-09-27T09:44:23.516Z,45.76
2018-09-27T09:46:57.178Z,45.57
2018-09-27T09:49:30.795Z,45.96
2018-09-27T09:52:04.383Z,46.69
2018-09-27T09:54:38.014Z,45.54
2018-09-27T09:57:11.647Z,44.81
2018-09-27T09:59:45.818Z,45.13
2018-09-27T10:02:19.454Z,44.93
2018-09-27T10:04:53.075Z,44.07
2018-09-27T10:07:26.791Z,42.48
2018-09-27T10:10:00.412Z,42.65
2018-09-27T10:12:34.043Z,43.84
2018-09-27T10:15:07.677Z,44.62
2018-09-27T10:17:41.263Z,43.80
2018-09-27T10:20:15.108Z,44.86
2018-09-27T10:22:48.693Z,45.73
2018-09-27T10:25:22.342Z,44.99
2018-09-27T10:27:55.934Z,45.94
2018-09-27T10:30:29.544Z,45.73
2018-09-27T10:33:03.163Z,45.01
2018-09-27T10:35:36.776Z,44.81
2018-09-27T10:38:10.349Z,45.04
2018-09-27T10:40:44.027Z,44.48
2018-09-27T10:43:17.684Z,44.19
2018-09-27T10:45:51.654Z,45.18
2018-09-27T10:48:25.273Z,44.45
2018-09-27T10:50:58.872Z,43.92
2018-09-27T10:53:32.521Z,44.41
2018-09-27T10:56:06.174Z,43.44
2018-09-27T10:58:39.764Z,43.66
2018-09-27T11:01:13.359Z,43.87
2018-09-27T11:03:47.038Z,44.51
2018-09-27T11:06:20.648Z,43.25
2018-09-27T11:08:54.370Z,42.80
2018-09-27T11:11:28.049Z,42.50
2018-09-27T11:14:01.600Z,41.01
2018-09-27T11:16:35.291Z,42.80
2018-09-27T11:19:08.942Z,42.42
2018-09-27T11:21:43.448Z,43.20
2018-09-27T11:24:17.091Z,42.69
2018-09-27T11:26:50.695Z,43.67
2018-09-27T11:29:29.585Z,43.56
2018-09-27T11:32:08.591Z,43.24
2018-09-27T11:34:42.220Z,42.68
2018-09-27T11:37:15.809Z,43.57
2018-09-27T11:39:49.370Z,42.54
2018-09-27T11:42:23.400Z,42.97
2018-09-27T11:44:57.065Z,43.01
2018-09-27T11:47:30.678Z,42.83
2018-09-27T11:50:04.405Z,41.81
2018-09-27T11:52:37.984Z,42.17
2018-09-27T11:55:12.155Z,42.19
2018-09-27T11:57:45.725Z,42.11
2018-09-27T12:00:19.349Z,41.69
2018-09-27T12:02:52.983Z,41.74
2018-09-27T12:05:26.552Z,42.30
2018-09-27T12:08:00.182Z,41.78
2018-09-27T12:10:33.781Z,42.16
2018-09-27T12:13:07.447Z,42.24
2018-09-27T12:15:41.056Z,41.22
2018-09-27T12:18:20.966Z,42.18
2018-09-27T12:20:54.691Z,42.86
2018-09-27T12:23:28.289Z,43.25
2018-09-27T12:26:01.916Z,42.56
2018-09-27T12:28:35.520Z,42.70
2018-09-27T12:31:09.360Z,41.84
2018-09-27T12:33:42.891Z,42.45
2018-09-27T12:36:16.476Z,42.83
2018-09-27T12:38:50.128Z,42.62
2018-09-27T12:41:23.742Z,43.31
2018-09-27T12:43:57.320Z,42.82
2018-09-27T12:46:31.007Z,43.37
2018-09-27T12:49:04.619Z,43.74
2018-09-27T12:51:38.317Z,42.49
2018-09-27T12:54:11.974Z,42.97
2018-09-27T12:56:45.567Z,43.80
2018-09-27T12:59:19.157Z,44.16
2018-09-27T13:01:53.013Z,43.62
2018-09-27T13:04:26.480Z,43.90
2018-09-27T13:07:00.050Z,43.54
2018-09-27T13:09:33.836Z,43.56
2018-09-27T13:12:07.376Z,43.97
2018-09-27T13:14:40.983Z,43.99
2018-09-27T13:17:14.654Z,44.69
2018-09-27T13:19:48.406Z,44.22
2018-09-27T13:22:21.997Z,44.56
2018-09-27T13:24:55.650Z,44.73
2018-09-27T13:27:29.207Z,43.75
2018-09-27T13:30:02.856Z,44.10
2018-09-27T13:32:36.489Z,44.45
2018-09-27T13:35:10.132Z,44.62
2018-09-27T13:37:43.748Z,45.39
2018-09-27T13:40:17.382Z,44.50
2018-09-27T13:42:51.050Z,45.21
2018-09-27T13:45:24.643Z,45.28
2018-09-27T13:47:58.278Z,45.78
2018-09-27T13:50:31.852Z,45.97
2018-09-27T13:53:05.490Z,45.66
2018-09-27T13:55:39.092Z,45.45
2018-09-27T13:58:15.643Z,46.30
2018-09-27T14:00:54.303Z,46.00
2018-09-27T14:03:28.047Z,46.42
2018-09-27T14:06:01.673Z,46.10
2018-09-27T14:08:39.187Z,45.74
2018-09-27T14:11:12.946Z,45.84
2018-09-27T14:13:46.717Z,46.01
2018-09-27T14:16:20.363Z,45.98
2018-09-27T14:18:54.261Z,46.55
2018-09-27T14:21:27.962Z,45.71
2018-09-27T14:24:02.085Z,45.90
2018-09-27T14:26:35.780Z,46.89
2018-09-27T14:29:09.420Z,45.94
2018-09-27T14:31:43.128Z,46.19
2018-09-27T14:34:16.833Z,46.26
2018-09-27T14:36:50.507Z,46.71
2018-09-27T14:39:24.197Z,45.99
2018-09-27T14:41:57.875Z,46.18
2018-09-27T14:44:31.603Z,45.80
2018-09-27T14:47:05.330Z,46.32
2018-09-27T14:49:39.043Z,46.41
2018-09-27T14:52:13.250Z,45.81
2018-09-27T14:54:47.061Z,46.72
2018-09-27T14:57:20.905Z,46.81
2018-09-27T14:59:54.788Z,46.94
2018-09-27T15:02:28.678Z,46.85
2018-09-27T15:05:18.503Z,47.19
2018-09-27T15:07:52.260Z,46.66
2018-09-27T15:10:25.981Z,46.99
2018-09-27T15:12:59.613Z,46.66
2018-09-27T15:15:33.512Z,46.80
2018-09-27T15:18:07.193Z,46.46
2018-09-27T15:20:40.798Z,47.29
2018-09-27T15:23:14.510Z,46.68
2018-09-27T15:25:48.128Z,47.06
2018-09-27T15:28:21.841Z,47.13
2018-09-27T15:30:55.476Z,47.13
2018-09-27T15:33:29.128Z,47.57
2018-09-27T15:36:02.730Z,47.62
2018-09-27T15:38:36.355Z,47.21
2018-09-27T15:41:10.026Z,46.91
2018-09-27T15:43:43.634Z,47.57
2018-09-27T15:46:17.369Z,47.28
2018-09-27T15:48:51.014Z,47.48
2018-09-27T15:51:24.731Z,47.52
2018-09-27T15:53:58.473Z,48.45
2018-09-27T15:56:32.067Z,47.79
2018-09-27T15:59:05.720Z,47.93
2018-09-27T16:01:39.317Z,47.99
2018-09-27T16:04:13.080Z,47.50
2018-09-27T16:06:46.722Z,47.86
2018-09-27T16:09:20.330Z,48.09
2018-09-27T16:11:54.035Z,47.63
2018-09-27T16:14:27.655Z,47.91
2018-09-27T16:17:01.253Z,47.46
2018-09-27T16:19:34.934Z,47.85
2018-09-27T16:22:08.601Z,47.66
2018-09-27T16:24:42.230Z,47.80
2018-09-27T16:27:15.822Z,48.42
2018-09-27T16:29:49.439Z,47.74
2018-09-27T16:32:23.034Z,48.10
2018-09-27T16:34:56.665Z,48.52
2018-09-27T16:37:30.231Z,48.44
2018-09-27T16:40:03.954Z,48.68
2018-09-27T16:42:37.572Z,48.66
2018-09-27T16:45:11.398Z,48.92
2018-09-27T16:47:45.245Z,49.13
2018-09-27T16:50:18.741Z,49.52
2018-09-27T16:52:52.368Z,48.83
2018-09-27T16:55:26.009Z,49.03
2018-09-27T16:58:00.774Z,49.32
2018-09-27T17:00:34.418Z,49.36
2018-09-27T17:03:08.143Z,49.16
2018-09-27T17:05:41.878Z,49.83
2018-09-27T17:08:15.445Z,49.23
2018-09-27T17:10:49.182Z,49.24
2018-09-27T17:13:22.818Z,49.82
2018-09-27T17:15:56.957Z,49.92
2018-09-27T17:18:30.541Z,49.98
2018-09-27T17:21:04.183Z,50.07
2018-09-27T17:23:38.009Z,49.68
2018-09-27T17:26:11.614Z,49.53
2018-09-27T17:28:45.252Z,49.13
2018-09-27T17:31:18.855Z,49.65
2018-09-27T17:33:52.592Z,50.15
2018-09-27T17:36:30.468Z,50.94
2018-09-27T17:39:05.191Z,50.55
2018-09-27T17:41:38.958Z,50.75
2018-09-27T17:44:12.540Z,50.93
2018-09-27T17:46:46.236Z,50.40
2018-09-27T17:49:19.903Z,50.77
2018-09-27T17:51:53.539Z,50.64
2018-09-27T17:54:27.165Z,51.04
2018-09-27T17:57:01.004Z,51.48
2018-09-27T17:59:34.685Z,51.33
2018-09-27T18:02:08.294Z,51.80
2018-09-27T18:04:41.955Z,51.83
2018-09-27T18:07:15.724Z,52.16
2018-09-27T18:09:50.390Z,52.21
2018-09-27T18:12:24.327Z,52.69
2018-09-27T18:14:58.009Z,52.28
2018-09-27T18:17:33.438Z,52.41
2018-09-27T18:20:07.888Z,52.78
2018-09-27T18:22:41.985Z,53.04
2018-09-27T18:25:15.783Z,53.13
2018-09-27T18:27:49.416Z,53.26
2018-09-27T18:30:23.007Z,53.33
2018-09-27T18:32:56.678Z,53.51
2018-09-27T18:35:30.287Z,53.83
2018-09-27T18:38:04.015Z,53.68
2018-09-27T18:40:37.846Z,53.56
2018-09-27T18:43:12.368Z,53.60
2018-09-27T18:45:45.874Z,53.83
2018-09-27T18:48:20.219Z,53.89
2018-09-27T18:50:54.084Z,53.68
2018-09-27T18:53:27.745Z,53.52
2018-09-27T18:56:01.346Z,53.64
2018-09-27T18:58:35.303Z,53.61
2018-09-27T19:01:08.957Z,53.96
2018-09-27T19:03:42.598Z,53.24
2018-09-27T19:06:16.288Z,52.91
2018-09-27T19:08:50.430Z,53.38
2018-09-27T19:11:24.486Z,53.68
2018-09-27T19:13:58.132Z,52.83
2018-09-27T19:16:31.873Z,53.10
2018-09-27T19:19:05.899Z,53.15
2018-09-27T19:21:39.866Z,53.12
2018-09-27T19:24:13.574Z,53.12
2018-09-27T19:26:47.411Z,53.77
2018-09-27T19:29:21.064Z,54.22
2018-09-27T19:31:54.863Z,54.27
2018-09-27T19:34:28.535Z,54.31
2018-09-27T19:37:02.136Z,54.67
2018-09-27T19:39:35.722Z,54.68
2018-09-27T19:42:09.492Z,55.00
2018-09-27T19:44:43.093Z,55.23
2018-09-27T19:47:16.700Z,54.82
2018-09-27T19:49:50.582Z,55.04
2018-09-27T19:52:24.259Z,55.33
2018-09-27T19:54:57.877Z,55.09
2018-09-27T19:57:31.512Z,56.00
2018-09-27T20:00:05.306Z,55.62
2018-09-27T20:02:38.899Z,55.79
2018-09-27T20:05:12.630Z,55.83
2018-09-27T20:07:46.218Z,56.18
2018-09-27T20:10:19.843Z,56.35
2018-09-27T20:12:53.577Z,56.44
2018-09-27T20:15:27.175Z,57.15
2018-09-27T20:18:01.181Z,56.75
2018-09-27T20:20:34.774Z,56.58
2018-09-27T20:23:08.520Z,56.86
2018-09-27T20:25:42.061Z,57.19
2018-09-27T20:28:15.730Z,56.79
2018-09-27T20:30:49.470Z,56.14
2018-09-27T20:33:23.124Z,56.15
2018-09-27T20:35:56.708Z,55.82
2018-09-27T20:38:30.326Z,56.16
2018-09-27T20:41:03.983Z,55.88
2018-09-27T20:43:37.674Z,55.72
2018-09-27T20:46:11.258Z,55.69
2018-09-27T20:48:44.878Z,55.47
2018-09-27T20:51:18.445Z,55.62
2018-09-27T20:53:52.103Z,55.72
2018-09-27T20:56:25.668Z,55.54
2018-09-27T20:58:59.303Z,55.78
2018-09-27T21:01:32.862Z,55.70
2018-09-27T21:04:06.624Z,56.05
2018-09-27T21:06:40.466Z,55.70
2018-09-27T21:09:14.610Z,55.99
2018-09-27T21:11:48.204Z,55.81
2018-09-27T21:14:21.842Z,55.91
2018-09-27T21:16:55.426Z,55.71
2018-09-27T21:19:29.063Z,56.14
2018-09-27T21:22:02.779Z,55.12
2018-09-27T21:24:36.706Z,55.18
2018-09-27T21:27:10.288Z,54.08
2018-09-27T21:29:43.929Z,53.18
2018-09-27T21:32:17.543Z,53.63
2018-09-27T21:34:51.144Z,53.29
2018-09-27T21:37:24.762Z,53.26
2018-09-27T21:39:58.431Z,53.43
2018-09-27T21:42:31.995Z,54.13
2018-09-27T21:45:05.638Z,54.47
2018-09-27T21:47:39.348Z,54.57
2018-09-27T21:50:13.080Z,54.70
2018-09-27T21:52:46.814Z,55.13
2018-09-27T21:55:20.459Z,55.07
2018-09-27T21:57:54.117Z,55.27
2018-09-27T22:00:27.858Z,55.69
2018-09-27T22:03:01.583Z,55.73
2018-09-27T22:05:35.202Z,55.38
2018-09-27T22:08:08.947Z,55.63
2018-09-27T22:10:42.609Z,55.25
2018-09-27T22:13:16.366Z,55.50
2018-09-27T22:15:50.015Z,55.87
2018-09-27T22:18:23.801Z,56.03
2018-09-27T22:20:57.413Z,55.88
2018-09-27T22:23:31.006Z,55.58
2018-09-27T22:26:04.616Z,55.19
2018-09-27T22:28:38.202Z,55.15
2018-09-27T22:31:13.996Z,55.21
2018-09-27T22:33:47.590Z,54.94
2018-09-27T22:36:21.330Z,55.32
2018-09-27T22:38:55.016Z,55.16
2018-09-27T22:41:28.790Z,55.10
2018-09-27T22:44:02.374Z,54.78
2018-09-27T22:46:35.984Z,54.86
2018-09-27T22:49:09.577Z,54.83
2018-09-27T22:51:43.267Z,54.77
2018-09-27T22:54:18.846Z,55.14
2018-09-27T22:56:52.490Z,55.17
2018-09-27T22:59:26.116Z,54.84
2018-09-27T23:01:59.705Z,54.87
2018-09-27T23:04:33.310Z,54.62
2018-09-27T23:07:06.921Z,55.32
2018-09-27T23:09:40.506Z,54.56
2018-09-27T23:12:14.141Z,54.52
2018-09-27T23:14:48.852Z,55.07
2018-09-27T23:17:22.493Z,54.79
2018-09-27T23:19:56.091Z,54.82
2018-09-27T23:22:29.692Z,54.65
2018-09-27T23:25:03.275Z,55.05
2018-09-27T23:27:36.895Z,55.00
2018-09-27T23:30:10.481Z,55.00
2018-09-27T23:32:44.158Z,55.23
2018-09-27T23:35:17.768Z,55.40
2018-09-27T23:37:51.428Z,55.96
2018-09-27T23:40:25.127Z,55.21
2018-09-27T23:42:58.772Z,55.26
2018-09-27T23:45:32.433Z,55.44
2018-09-27T23:48:06.070Z,55.21
2018-09-27T23:50:39.719Z,55.50
2018-09-27T23:53:13.334Z,55.43
2018-09-27T23:55:46.975Z,55.37
2018-09-27T23:58:20.587Z,55.48
